This is the latest recevied weather packets stored in our database for station/object AD4WX-13. If no packets are shown the sender has not sent any weather packets the latest 10 day(s).
| Time | Temp. | Humidity | Pressure | Rain* | Wind** | Luminosity | Snow |
|---|---|---|---|---|---|---|---|
| 1777769673 | 12.78° C | 68% | 1016.5 hPa | 0 mm | - | 0 W/m² | - |
| 1777768467 | 13.89° C | 63% | 1016.3 hPa | 0 mm | - | 9 W/m² | - |
| 1777758480 | 18.33° C | 47% | 1014.1 hPa | 0 mm | - | 190 W/m² | - |
| 1777754688 | 18.33° C | 40% | 1014.1 hPa | 0 mm | - | 179 W/m² | - |
| 1777753501 | 19.44° C | 38% | 1014.2 hPa | 0 mm | - | 223 W/m² | - |
| 1777749811 | 18.89° C | 40% | 1014.6 hPa | 0 mm | - | 1034 W/m² | - |
| 1777733787 | 16.67° C | 48% | 1016.4 hPa | 0 mm | - | 714 W/m² | - |
| 1777732569 | 17.22° C | 52% | 1016.5 hPa | 0 mm | - | 650 W/m² | - |
| 1777731326 | 16.11° C | 57% | 1016.2 hPa | 0 mm | - | 589 W/m² | - |
| 1777727536 | 13.33° C | 68% | 1015.9 hPa | 0 mm | - | 339 W/m² | - |
| 1777724433 | 6.67° C | 91% | 1015.7 hPa | 0 mm | - | 181 W/m² | - |
| 1777723817 | 5° C | 92% | 1015.7 hPa | 0 mm | - | 144 W/m² | - |
| 1777720612 | 4.44° C | 92% | 1015.1 hPa | 0 mm | - | 12 W/m² | - |
| 1777719986 | 4.44° C | 92% | 1015.1 hPa | 0 mm | - | 5 W/m² | - |
| 1777718113 | 5° C | 91% | 1015 hPa | 0 mm | - | 0 W/m² | - |
| 1777706343 | 7.78° C | 86% | 1015 hPa | 0 mm | - | 0 W/m² | - |
| 1777701442 | 8.33° C | 81% | 1015.4 hPa | 0 mm | - | 0 W/m² | - |
| 1777700807 | 8.33° C | 80% | 1015.5 hPa | 0 mm | - | 0 W/m² | - |
| 1777697829 | 10° C | 72% | 1015.2 hPa | 0 mm | - | 0 W/m² | - |
| 1777692298 | 10.56° C | 68% | 1015.4 hPa | 0 mm | - | 0 W/m² | - |
| 1777687329 | 11.67° C | 63% | 1015.1 hPa | 0 mm | - | 0 W/m² | - |
| 1777683065 | 12.78° C | 64% | 1014.2 hPa | 0 mm | - | 0 W/m² | - |
| 1777677329 | 16.67° C | 44% | 1012.7 hPa | 0 mm | - | 302 W/m² | - |
| 1777671831 | 18.89° C | 40% | 1012.1 hPa | 0 mm | - | 352 W/m² | - |
| 1777670516 | 18.89° C | 44% | 1012.2 hPa | 0 mm | - | 694 W/m² | - |
* Rain latest hour (hover to see other rain measurements)
** Current wind speed in m/s (hover to see current wind gust speed)